createdAt,value
2017-08-17T00:00:01.362Z,14
2017-08-17T00:05:01.298Z,14
2017-08-17T00:10:02.078Z,13.9
2017-08-17T00:15:01.158Z,13.8
2017-08-17T00:20:01.956Z,13.8
2017-08-17T00:25:02.152Z,13.8
2017-08-17T00:30:01.917Z,13.6
2017-08-17T00:35:01.985Z,13.6
2017-08-17T00:40:01.745Z,13.6
2017-08-17T00:45:01.252Z,13.5
2017-08-17T00:50:02.046Z,13.5
2017-08-17T00:55:01.374Z,13.4
2017-08-17T01:00:01.334Z,13.4
2017-08-17T01:05:02.040Z,13.3
2017-08-17T01:10:01.790Z,13.3
2017-08-17T01:15:02.089Z,13.2
2017-08-17T01:20:01.766Z,13.2
2017-08-17T01:25:02.414Z,13.2
2017-08-17T01:30:02.116Z,13.1
2017-08-17T01:35:01.259Z,13.1
2017-08-17T01:40:02.043Z,13
2017-08-17T01:45:01.524Z,13
2017-08-17T01:50:01.313Z,12.9
2017-08-17T01:55:01.681Z,12.9
2017-08-17T02:00:01.859Z,12.8
2017-08-17T02:05:01.334Z,12.8
2017-08-17T02:10:01.657Z,12.8
2017-08-17T02:15:01.309Z,12.8
2017-08-17T02:20:01.309Z,12.8
2017-08-17T02:25:01.950Z,12.7
2017-08-17T02:30:01.668Z,12.7
2017-08-17T02:35:02.017Z,12.7
2017-08-17T02:40:01.477Z,12.7
2017-08-17T02:45:01.974Z,12.7
2017-08-17T02:50:01.833Z,12.7
2017-08-17T02:55:01.885Z,12.7
2017-08-17T03:00:02.017Z,12.7
2017-08-17T03:05:01.925Z,12.7
2017-08-17T03:10:01.651Z,12.8
2017-08-17T03:15:01.838Z,12.8
2017-08-17T03:20:01.438Z,12.8
2017-08-17T03:25:01.527Z,12.7
2017-08-17T03:30:01.598Z,12.7
2017-08-17T03:35:01.899Z,12.7
2017-08-17T03:40:01.295Z,12.7
2017-08-17T03:45:02.159Z,12.7
2017-08-17T03:50:02.531Z,12.7
2017-08-17T03:55:01.492Z,12.7
2017-08-17T04:00:01.571Z,12.7
2017-08-17T04:05:01.567Z,12.6
2017-08-17T04:10:01.467Z,12.6
2017-08-17T04:15:01.622Z,12.6
2017-08-17T04:20:01.504Z,12.6
2017-08-17T04:25:01.189Z,12.7
2017-08-17T04:30:01.371Z,12.8
2017-08-17T04:35:02.162Z,12.8
2017-08-17T04:40:01.857Z,12.8
2017-08-17T04:45:01.323Z,12.8
2017-08-17T04:50:01.393Z,13
2017-08-17T04:55:01.562Z,13.2
2017-08-17T05:00:01.631Z,13.2
2017-08-17T05:05:01.536Z,13.4
2017-08-17T05:10:01.366Z,13.5
2017-08-17T05:15:01.356Z,13.6
2017-08-17T05:20:01.466Z,13.7
2017-08-17T05:25:01.957Z,13.7
2017-08-17T05:30:01.978Z,14.1
2017-08-17T05:35:01.466Z,14.2
2017-08-17T05:40:01.295Z,14.9
2017-08-17T05:45:01.703Z,14.9
2017-08-17T05:50:01.646Z,15
2017-08-17T05:55:01.425Z,15
2017-08-17T06:00:01.512Z,15.4
2017-08-17T06:05:01.620Z,15.4
2017-08-17T06:10:01.945Z,15.4
2017-08-17T06:15:01.465Z,15.9
2017-08-17T06:20:01.295Z,16.1
2017-08-17T06:25:01.607Z,16.1
2017-08-17T06:30:01.800Z,16.5
2017-08-17T06:35:02.003Z,16.6
2017-08-17T06:40:01.714Z,16.8
2017-08-17T06:45:01.420Z,16.8
2017-08-17T06:50:01.441Z,17.2
2017-08-17T06:55:01.791Z,17.5
2017-08-17T07:00:01.845Z,17.7
2017-08-17T07:05:01.606Z,17.8
2017-08-17T07:10:01.609Z,18.1
2017-08-17T07:15:01.310Z,18.1
2017-08-17T07:20:02.091Z,18.6
2017-08-17T07:25:02.040Z,18.7
2017-08-17T07:30:02.065Z,18.9
2017-08-17T08:35:01.902Z,21
2017-08-17T08:40:01.543Z,21
2017-08-17T08:45:02.003Z,21
2017-08-17T08:50:01.959Z,21.5
2017-08-17T08:55:02.152Z,21.6
2017-08-17T09:00:01.463Z,21.6
2017-08-17T09:05:02.033Z,21.6
2017-08-17T09:10:01.802Z,22
2017-08-17T09:15:02.165Z,22.2
2017-08-17T09:20:01.823Z,22.2
2017-08-17T09:25:01.450Z,22.2
2017-08-17T09:30:01.729Z,22.2
2017-08-17T09:35:01.777Z,22.5
2017-08-17T09:40:01.557Z,22.5
2017-08-17T09:45:01.441Z,22.7
2017-08-17T09:50:01.456Z,22.7
2017-08-17T09:55:01.421Z,22.7
2017-08-17T10:00:01.796Z,22.9
2017-08-17T10:05:01.747Z,22.9
2017-08-17T10:10:01.920Z,22.9
2017-08-17T10:15:01.515Z,22.9
2017-08-17T10:20:01.274Z,23.2
2017-08-17T10:25:01.368Z,23.3
2017-08-17T10:30:01.632Z,23.3
2017-08-17T10:35:01.606Z,23.3
2017-08-17T10:40:01.485Z,23.3
2017-08-17T10:45:02.077Z,23.6
2017-08-17T10:50:02.041Z,23.6
2017-08-17T10:55:01.451Z,23.6
2017-08-17T11:00:01.842Z,23.6
2017-08-17T11:05:01.535Z,23.6
2017-08-17T11:10:01.411Z,23.6
2017-08-17T11:15:01.626Z,23.8
2017-08-17T11:20:01.453Z,23.8
2017-08-17T11:25:01.547Z,23.5
2017-08-17T11:30:01.871Z,23.5
2017-08-17T11:35:01.190Z,23.5
2017-08-17T11:40:01.897Z,23.4
2017-08-17T11:45:01.943Z,23.4
2017-08-17T11:50:01.932Z,23.4
2017-08-17T11:55:01.885Z,23.4
2017-08-17T12:00:01.306Z,23.5
2017-08-17T12:05:01.787Z,23.5
2017-08-17T12:10:01.626Z,23.6
2017-08-17T12:15:01.286Z,23.6
2017-08-17T12:20:02.052Z,23.6
2017-08-17T12:25:01.620Z,23.6
2017-08-17T12:30:01.789Z,23.8
2017-08-17T12:35:01.551Z,23.8
2017-08-17T12:40:01.393Z,23.8
2017-08-17T12:45:01.199Z,23.9
2017-08-17T12:50:01.180Z,23.9
2017-08-17T12:55:01.824Z,23.8
2017-08-17T13:00:01.749Z,23.8
2017-08-17T13:05:01.174Z,23.8
2017-08-17T13:10:02.051Z,23.8
2017-08-17T13:15:01.452Z,23.7
2017-08-17T13:20:01.215Z,23.7
2017-08-17T13:25:01.298Z,23.7
2017-08-17T13:30:01.635Z,23.7
2017-08-17T13:35:02.000Z,23.6
2017-08-17T13:40:01.758Z,23.6
2017-08-17T13:45:01.561Z,23.5
2017-08-17T13:50:01.535Z,23.4
2017-08-17T13:55:01.270Z,23.4
2017-08-17T14:00:01.602Z,23.4
2017-08-17T14:05:01.942Z,23.4
2017-08-17T14:10:02.098Z,23.4
2017-08-17T14:15:01.690Z,23.2
2017-08-17T14:20:01.519Z,23.2
2017-08-17T14:25:01.646Z,23.2
2017-08-17T14:30:01.726Z,23.2
2017-08-17T14:35:01.247Z,23.2
2017-08-17T14:40:01.995Z,23.2
2017-08-17T14:45:01.633Z,23.2
2017-08-17T14:50:01.649Z,23.2
2017-08-17T14:55:01.237Z,23.2
2017-08-17T15:00:01.216Z,23.2
2017-08-17T15:05:01.393Z,23.2
2017-08-17T15:10:01.852Z,23
2017-08-17T15:15:01.668Z,23
2017-08-17T15:20:01.390Z,23
2017-08-17T15:25:01.730Z,22.6
2017-08-17T15:30:01.729Z,22.6
2017-08-17T15:35:01.251Z,22.3
2017-08-17T15:40:02.091Z,22.3
2017-08-17T15:45:08.776Z,22.3
2017-08-17T15:50:01.806Z,21.8
2017-08-17T15:55:01.704Z,21.6
2017-08-17T16:00:01.848Z,21.3
2017-08-17T16:05:01.694Z,21.3
2017-08-17T16:10:01.441Z,21.3
2017-08-17T16:15:01.707Z,21.3
2017-08-17T16:20:01.440Z,21.3
2017-08-17T16:25:02.160Z,21.3
2017-08-17T16:30:02.161Z,21.3
2017-08-17T16:35:01.995Z,20.2
2017-08-17T16:40:01.738Z,20
2017-08-17T16:45:01.190Z,20
2017-08-17T16:50:02.160Z,20
2017-08-17T16:55:02.136Z,19.5
2017-08-17T17:00:02.166Z,19.5
2017-08-17T17:05:01.937Z,19.5
2017-08-17T17:10:01.981Z,19.5
2017-08-17T17:15:01.903Z,19.5
2017-08-17T17:20:01.613Z,19.2
2017-08-17T17:25:01.895Z,19
2017-08-17T17:30:01.910Z,18.9
2017-08-17T17:35:01.547Z,18.8
2017-08-17T17:40:01.308Z,18.8
2017-08-17T17:45:01.970Z,18.5
2017-08-17T17:50:01.948Z,18.5
2017-08-17T17:55:01.887Z,18.5
2017-08-17T18:00:01.978Z,18.5
2017-08-17T18:05:01.465Z,18.5
2017-08-17T18:10:01.285Z,18.5
2017-08-17T18:15:01.802Z,18.5
2017-08-17T18:20:01.584Z,18.5
2017-08-17T18:25:01.864Z,18.5
2017-08-17T18:30:01.897Z,18
2017-08-17T18:35:01.234Z,18
2017-08-17T18:40:01.953Z,18
2017-08-17T18:45:01.491Z,18
2017-08-17T18:50:01.498Z,18
2017-08-17T18:55:01.357Z,17.9
2017-08-17T19:00:01.394Z,17.8
2017-08-17T19:05:02.111Z,17.8
2017-08-17T19:10:01.919Z,17.8
2017-08-17T19:15:01.237Z,17.8
2017-08-17T19:20:01.537Z,17.8
2017-08-17T19:25:01.910Z,17.8
2017-08-17T19:30:02.010Z,17.7
2017-08-17T19:35:01.444Z,17.7
2017-08-17T19:40:01.257Z,17.7
2017-08-17T19:45:02.029Z,17.7
2017-08-17T19:50:01.826Z,17.7
2017-08-17T19:55:01.530Z,17.7
2017-08-17T20:00:01.659Z,17.7
2017-08-17T20:05:01.917Z,17.7
2017-08-17T20:10:01.782Z,17.7
2017-08-17T20:15:02.157Z,17.7
2017-08-17T20:20:01.150Z,17.7
2017-08-17T20:25:01.636Z,17.7
2017-08-17T20:30:01.755Z,17.7
2017-08-17T20:35:01.719Z,17.7
2017-08-17T20:40:01.609Z,17.7
2017-08-17T20:45:01.699Z,17.6
2017-08-17T20:50:01.438Z,17.6
2017-08-17T20:55:01.972Z,17.6
2017-08-17T21:00:01.260Z,17.6
2017-08-17T21:05:02.173Z,17.6
2017-08-17T21:10:02.238Z,17.6
2017-08-17T21:15:01.905Z,17.6
2017-08-17T21:20:01.880Z,17.6
2017-08-17T21:25:01.944Z,17.6
2017-08-17T21:30:02.157Z,17.6
2017-08-17T21:35:01.959Z,17.5
2017-08-17T21:40:01.860Z,17.6
2017-08-17T21:45:01.693Z,17.5
2017-08-17T21:50:01.490Z,17.5
2017-08-17T21:55:01.668Z,17.5
2017-08-17T22:00:01.833Z,17.5
2017-08-17T22:05:02.159Z,17.5
2017-08-17T22:10:01.514Z,17.5
2017-08-17T22:15:02.080Z,17.5
2017-08-17T22:20:01.844Z,17.5
2017-08-17T22:25:01.946Z,17.5
2017-08-17T22:30:01.748Z,17.5
2017-08-17T22:35:01.246Z,17.5
2017-08-17T22:40:02.065Z,17.5
2017-08-17T22:45:01.653Z,17.5
2017-08-17T22:50:01.425Z,17.6
2017-08-17T22:55:01.787Z,17.6
2017-08-17T23:00:01.580Z,17.6
2017-08-17T23:05:01.914Z,17.6
2017-08-17T23:10:01.696Z,17.6
2017-08-17T23:15:01.331Z,17.6
2017-08-17T23:20:02.063Z,17.6
2017-08-17T23:25:01.716Z,17.6
2017-08-17T23:30:01.524Z,17.6
2017-08-17T23:35:01.830Z,17.6
2017-08-17T23:40:01.744Z,17.7
2017-08-17T23:45:01.343Z,17.7
2017-08-17T23:50:02.052Z,17.7
2017-08-17T23:55:02.050Z,17.7
